Time;durP1;ratioP1;P1;durP2;ratioP2;P2;SDS_P1;SDS_P2;PMS_P1;PMS_P2;Temp;Humidity;BMP_temperature;BMP_pressure;BME280_temperature;BME280_humidity;BME280_pressure;Samples;Min_cycle;Max_cycle;Signal;HPM_P1;HPM_P2
2022/08/03 00:01:28;;;;;;;4.47;3.60;;;19.30;99.90;;;;;;5021024;27;89299;-44
2022/08/03 00:03:54;;;;;;;6.28;3.72;;;19.30;99.90;;;;;;5020847;27;89677;-36
2022/08/03 00:06:20;;;;;;;6.40;3.50;;;19.30;99.90;;;;;;5021083;27;89215;-36
2022/08/03 00:08:45;;;;;;;7.45;5.75;;;19.30;99.90;;;;;;5020999;28;88463;-39
2022/08/03 00:11:11;;;;;;;6.55;4.68;;;19.30;99.90;;;;;;5020436;28;90211;-43
2022/08/03 00:13:36;;;;;;;6.45;4.13;;;19.20;99.90;;;;;;5020912;28;89615;-40
2022/08/03 00:16:02;;;;;;;5.60;4.93;;;19.20;99.90;;;;;;5021048;28;89294;-37
2022/08/03 00:18:28;;;;;;;7.18;4.18;;;19.20;99.90;;;;;;5002473;22;87665;-31
2022/08/03 00:20:53;;;;;;;6.95;4.38;;;19.10;99.90;;;;;;4961577;28;90257;-33
2022/08/03 00:23:19;;;;;;;10.45;4.30;;;19.10;99.90;;;;;;4960821;28;89967;-32
2022/08/03 00:25:44;;;;;;;6.57;4.32;;;19.00;99.90;;;;;;4961876;28;89405;-33
2022/08/03 00:28:10;;;;;;;6.10;3.65;;;19.00;99.90;;;;;;4961076;28;87536;-33
2022/08/03 00:30:36;;;;;;;5.97;5.38;;;19.00;99.90;;;;;;4961054;28;89562;-33
2022/08/03 00:33:02;;;;;;;5.22;3.92;;;19.00;99.90;;;;;;4960554;28;90446;-32
2022/08/03 00:35:29;;;;;;;9.93;4.40;;;18.90;99.90;;;;;;4960514;28;88202;-31
2022/08/03 00:37:54;;;;;;;9.10;4.32;;;18.90;99.90;;;;;;4961412;28;88288;-31
2022/08/03 00:40:20;;;;;;;6.13;4.00;;;18.90;99.90;;;;;;4960309;28;90504;-30
2022/08/03 00:42:55;;;;;;;5.32;3.90;;;18.90;99.90;;;;;;4960582;28;89600;-35
2022/08/03 00:45:26;;;;;;;8.65;4.57;;;18.90;99.90;;;;;;4960677;28;87585;-31
2022/08/03 00:47:52;;;;;;;4.30;3.63;;;18.80;99.90;;;;;;4961205;28;89807;-32
2022/08/03 00:50:21;;;;;;;8.98;4.63;;;18.80;99.90;;;;;;4960869;28;91355;-33
2022/08/03 00:52:47;;;;;;;10.70;5.15;;;18.80;99.90;;;;;;4960162;28;89942;-32
2022/08/03 00:55:13;;;;;;;11.77;5.38;;;18.80;99.90;;;;;;4960262;28;88641;-35
2022/08/03 00:57:39;;;;;;;4.75;4.22;;;18.80;99.90;;;;;;4960949;28;88677;-33
2022/08/03 01:00:06;;;;;;;8.60;5.28;;;18.80;99.90;;;;;;4960186;28;90360;-32
2022/08/03 01:02:32;;;;;;;7.45;5.05;;;18.80;99.90;;;;;;4961138;28;89962;-34
2022/08/03 01:04:58;;;;;;;5.63;5.05;;;18.80;99.90;;;;;;4960401;28;89062;-33
2022/08/03 01:07:43;;;;;;;11.95;5.72;;;18.80;99.90;;;;;;4960133;28;89496;-34
2022/08/03 01:10:08;;;;;;;7.95;6.28;;;18.80;99.90;;;;;;4960375;28;89908;-33
2022/08/03 01:12:41;;;;;;;5.80;4.65;;;18.80;99.90;;;;;;4960957;28;89686;-33
2022/08/03 01:15:19;;;;;;;7.93;4.65;;;18.70;99.90;;;;;;4961360;28;87564;-33
2022/08/03 01:17:57;;;;;;;8.02;4.60;;;18.70;99.90;;;;;;4960247;28;89492;-32
2022/08/03 01:20:26;;;;;;;7.22;4.60;;;18.70;99.90;;;;;;4959792;28;89788;-31
2022/08/03 01:23:19;;;;;;;6.32;4.55;;;18.70;99.90;;;;;;4959965;28;90261;-33
2022/08/03 01:26:22;;;;;;;15.07;5.60;;;18.70;99.90;;;;;;4960719;28;87526;-34
2022/08/03 01:29:04;;;;;;;5.43;4.55;;;18.70;99.90;;;;;;4959779;28;88496;-34
2022/08/03 01:31:40;;;;;;;10.88;5.28;;;18.70;99.90;;;;;;4960213;28;90613;-34
2022/08/03 01:34:09;;;;;;;5.90;4.63;;;18.70;99.90;;;;;;4960129;28;90014;-32
2022/08/03 01:36:39;;;;;;;10.48;5.13;;;18.70;99.90;;;;;;4960527;28;89379;-34
2022/08/03 01:39:10;;;;;;;5.57;4.68;;;18.70;99.90;;;;;;4960061;28;88786;-32
2022/08/03 01:41:58;;;;;;;9.60;5.03;;;18.70;99.90;;;;;;4960547;28;91253;-32
2022/08/03 01:44:25;;;;;;;9.82;4.50;;;18.70;99.90;;;;;;4959721;28;90102;-34
2022/08/03 01:46:52;;;;;;;6.45;4.95;;;18.70;99.90;;;;;;4960069;28;88838;-33
2022/08/03 01:49:17;;;;;;;11.07;5.05;;;18.70;99.90;;;;;;4957409;28;88432;-33
2022/08/03 01:51:49;;;;;;;4.88;4.20;;;18.70;99.90;;;;;;4960496;28;90263;-31
2022/08/03 01:54:16;;;;;;;5.65;4.40;;;18.60;99.90;;;;;;4959768;28;90344;-34
2022/08/03 01:56:43;;;;;;;7.23;4.77;;;18.60;99.90;;;;;;4960450;28;87971;-33
2022/08/03 01:59:11;;;;;;;7.47;4.78;;;18.60;99.90;;;;;;4960154;28;88208;-32
2022/08/03 02:01:37;;;;;;;9.68;5.38;;;18.50;99.90;;;;;;4960516;28;90700;-32
2022/08/03 02:04:05;;;;;;;6.60;4.85;;;18.50;99.90;;;;;;4960035;28;89802;-32
2022/08/03 02:06:33;;;;;;;6.73;5.30;;;18.40;99.90;;;;;;4962016;28;88472;-34
2022/08/03 02:09:00;;;;;;;10.23;5.72;;;18.40;99.90;;;;;;4962812;28;87925;-34
2022/08/03 02:11:26;;;;;;;6.63;5.07;;;18.40;99.90;;;;;;4963183;28;89893;-32
2022/08/03 02:13:53;;;;;;;7.25;5.05;;;18.30;99.90;;;;;;4963394;28;88551;-32
2022/08/03 02:16:21;;;;;;;8.73;6.55;;;18.30;99.90;;;;;;4962544;28;90366;-33
2022/08/03 02:18:47;;;;;;;7.70;5.97;;;18.30;99.90;;;;;;4963049;28;88782;-34
2022/08/03 02:21:14;;;;;;;5.07;4.57;;;18.30;99.90;;;;;;4963087;28;89303;-32
2022/08/03 02:23:40;;;;;;;10.38;5.88;;;18.30;99.90;;;;;;4963116;28;89504;-31
2022/08/03 02:26:10;;;;;;;11.63;6.10;;;18.20;99.90;;;;;;4962763;28;87951;-34
2022/08/03 02:28:39;;;;;;;11.65;6.45;;;18.20;99.90;;;;;;4962754;28;89389;-32
2022/08/03 02:31:13;;;;;;;10.00;6.93;;;18.30;99.90;;;;;;4962565;28;90309;-33
2022/08/03 02:33:42;;;;;;;9.50;6.28;;;18.20;99.90;;;;;;4962700;28;91170;-32
2022/08/03 02:36:10;;;;;;;10.75;5.95;;;18.20;99.90;;;;;;4962715;28;88409;-33
2022/08/03 02:38:39;;;;;;;12.32;5.93;;;18.20;99.90;;;;;;4962639;28;89785;-33
2022/08/03 02:41:12;;;;;;;16.10;8.25;;;18.20;99.90;;;;;;4962053;28;88830;-32
2022/08/03 02:43:39;;;;;;;8.95;5.55;;;18.20;99.90;;;;;;4962940;28;89360;-32
2022/08/03 02:46:07;;;;;;;8.77;6.73;;;18.10;99.90;;;;;;4962663;28;89701;-32
2022/08/03 02:48:35;;;;;;;7.53;5.88;;;18.10;99.90;;;;;;4962929;28;89372;-32
2022/08/03 02:51:02;;;;;;;6.60;6.00;;;18.10;99.90;;;;;;4962360;28;89962;-33
2022/08/03 02:53:30;;;;;;;12.10;7.87;;;18.10;99.90;;;;;;4961880;28;89452;-32
2022/08/03 02:55:57;;;;;;;11.98;6.75;;;18.10;99.90;;;;;;4963256;28;88493;-32
2022/08/03 02:58:24;;;;;;;9.13;6.88;;;18.10;99.90;;;;;;4961647;28;88298;-35
2022/08/03 03:00:51;;;;;;;7.27;6.40;;;18.10;99.90;;;;;;4962606;28;89892;-32
2022/08/03 03:03:18;;;;;;;9.97;6.03;;;18.10;99.90;;;;;;4961683;28;90634;-33
2022/08/03 03:05:45;;;;;;;9.30;6.15;;;18.00;99.90;;;;;;4962151;28;89387;-32
2022/08/03 03:08:16;;;;;;;13.32;5.18;;;18.00;99.90;;;;;;4961556;28;88665;-35
2022/08/03 03:10:43;;;;;;;7.35;6.22;;;18.00;99.90;;;;;;4961854;28;89828;-34
2022/08/03 03:13:09;;;;;;;7.82;6.20;;;18.00;99.90;;;;;;4962233;28;89727;-32
2022/08/03 03:15:38;;;;;;;11.00;7.10;;;18.00;99.90;;;;;;4960918;28;89896;-32
2022/08/03 03:18:06;;;;;;;11.65;7.13;;;18.00;99.90;;;;;;4961500;28;88031;-32
2022/08/03 03:20:34;;;;;;;6.75;5.05;;;18.00;99.90;;;;;;4961706;28;90215;-33
2022/08/03 03:23:00;;;;;;;9.13;5.55;;;18.00;99.90;;;;;;4961248;28;89783;-33
2022/08/03 03:25:30;;;;;;;12.63;6.20;;;18.00;99.90;;;;;;4962033;28;87502;-32
2022/08/03 03:27:56;;;;;;;13.93;6.43;;;18.00;99.90;;;;;;4962018;28;89037;-31
2022/08/03 03:30:22;;;;;;;8.13;5.50;;;18.00;99.90;;;;;;4961856;28;90280;-33
2022/08/03 03:32:48;;;;;;;6.60;5.40;;;18.00;99.90;;;;;;4961799;28;89491;-33
2022/08/03 03:35:15;;;;;;;8.80;7.15;;;18.00;99.90;;;;;;4962067;28;89035;-34
2022/08/03 03:37:41;;;;;;;6.73;5.57;;;18.00;99.90;;;;;;4962510;28;88766;-32
2022/08/03 03:40:07;;;;;;;8.98;5.43;;;17.90;99.90;;;;;;4961116;28;90077;-35
2022/08/03 03:42:33;;;;;;;11.25;5.40;;;17.90;99.90;;;;;;4961505;28;89080;-32
2022/08/03 03:45:03;;;;;;;8.45;5.72;;;17.90;99.90;;;;;;4961710;28;89901;-31
2022/08/03 03:47:29;;;;;;;6.25;5.25;;;17.90;99.90;;;;;;4961429;28;90179;-33
2022/08/03 03:49:56;;;;;;;6.80;4.55;;;17.90;99.90;;;;;;4961675;28;90296;-34
2022/08/03 03:52:22;;;;;;;10.50;5.03;;;17.90;99.90;;;;;;4961350;28;89558;-35
2022/08/03 03:54:48;;;;;;;9.60;4.72;;;17.90;99.90;;;;;;4961370;28;88916;-34
2022/08/03 03:57:13;;;;;;;9.98;4.50;;;17.90;99.90;;;;;;4961356;28;88472;-32
2022/08/03 03:59:40;;;;;;;5.38;4.57;;;17.90;99.90;;;;;;4961383;28;92395;-33
2022/08/03 04:02:08;;;;;;;7.80;5.07;;;17.90;99.90;;;;;;4961115;28;89718;-33
2022/08/03 04:12:58;;;;;;;9.07;3.72;;;18.00;99.90;;;;;;4961855;28;89858;-33
2022/08/03 04:15:28;;;;;;;5.47;2.83;;;18.00;99.90;;;;;;4961489;28;88359;-34
2022/08/03 04:17:57;;;;;;;5.88;4.03;;;18.10;99.90;;;;;;4960268;28;89801;-31
2022/08/03 04:20:25;;;;;;;10.35;4.30;;;18.10;99.90;;;;;;4961002;28;90453;-32
2022/08/03 04:22:53;;;;;;;8.38;3.97;;;18.10;99.90;;;;;;4961180;28;89674;-33
2022/08/03 04:25:23;;;;;;;8.05;3.72;;;18.10;99.90;;;;;;4961793;28;88909;-35
2022/08/03 04:27:51;;;;;;;5.75;3.70;;;18.10;99.90;;;;;;4960853;28;89493;-31
2022/08/03 04:30:18;;;;;;;4.78;4.13;;;18.10;99.90;;;;;;4961051;28;90524;-31
2022/08/03 04:32:50;;;;;;;6.90;2.95;;;18.20;99.90;;;;;;4961116;28;90303;-35
2022/08/03 04:35:16;;;;;;;5.82;3.88;;;18.20;99.90;;;;;;4961355;28;88308;-33
2022/08/03 04:37:46;;;;;;;7.65;3.13;;;18.20;99.90;;;;;;4971257;28;87545;-31
2022/08/03 04:40:35;;;;;;;7.63;3.25;;;18.20;99.90;;;;;;4960066;28;90030;-30
2022/08/03 04:43:02;;;;;;;9.85;4.28;;;18.30;99.90;;;;;;4969764;28;89634;-31
2022/08/03 04:45:29;;;;;;;3.47;3.15;;;18.40;99.90;;;;;;4975125;28;87604;-34
2022/08/03 04:47:55;;;;;;;3.63;2.97;;;18.50;99.90;;;;;;4974871;28;87720;-32
2022/08/03 04:50:21;;;;;;;6.60;3.63;;;18.80;99.90;;;;;;4974739;28;90221;-32
2022/08/03 04:52:47;;;;;;;14.25;3.75;;;19.00;99.90;;;;;;4975105;28;89347;-31
2022/08/03 04:55:28;;;;;;;4.75;3.85;;;19.30;99.90;;;;;;4974520;28;87653;-31
2022/08/03 04:57:53;;;;;;;16.40;3.70;;;19.50;99.90;;;;;;4975064;28;88200;-32
2022/08/03 05:00:19;;;;;;;10.90;3.75;;;19.70;99.90;;;;;;4961784;28;89918;-33
2022/08/03 05:02:45;;;;;;;6.57;3.55;;;19.80;99.90;;;;;;4965683;28;88833;-33
2022/08/03 05:05:11;;;;;;;5.40;4.07;;;19.90;99.90;;;;;;4960547;28;90109;-38
2022/08/03 05:07:37;;;;;;;7.50;3.80;;;19.90;99.90;;;;;;4960490;28;88592;-34
2022/08/03 05:10:08;;;;;;;7.13;4.22;;;19.90;99.90;;;;;;4960159;28;90151;-33
2022/08/03 05:12:33;;;;;;;17.05;5.82;;;19.90;99.90;;;;;;4960853;28;89675;-35
2022/08/03 05:15:00;;;;;;;8.25;3.45;;;19.90;99.90;;;;;;4960567;28;89289;-33
2022/08/03 05:17:27;;;;;;;5.25;3.28;;;19.90;99.90;;;;;;4959176;28;89258;-32
2022/08/03 05:19:53;;;;;;;7.10;4.07;;;19.90;99.90;;;;;;4959947;28;90305;-31
2022/08/03 05:22:19;;;;;;;5.90;3.35;;;19.90;99.90;;;;;;4960533;28;89542;-33
2022/08/03 05:24:44;;;;;;;9.10;4.03;;;20.00;99.90;;;;;;4960940;28;89832;-31
2022/08/03 05:27:16;;;;;;;13.73;5.70;;;20.10;99.90;;;;;;4960410;28;89503;-35
2022/08/03 05:29:42;;;;;;;6.68;3.80;;;20.20;99.90;;;;;;4960020;28;90167;-31
2022/08/03 05:32:07;;;;;;;8.10;3.60;;;20.30;99.90;;;;;;4959935;28;88994;-37
2022/08/03 05:34:33;;;;;;;7.38;4.25;;;20.40;99.90;;;;;;4960671;28;88730;-32
2022/08/03 05:36:59;;;;;;;7.60;3.92;;;20.50;99.90;;;;;;4961025;28;87999;-32
2022/08/03 05:39:24;;;;;;;5.93;3.22;;;20.60;99.90;;;;;;4960026;28;90280;-31
2022/08/03 05:41:50;;;;;;;5.95;3.83;;;20.60;99.90;;;;;;4962487;28;89500;-31
2022/08/03 05:44:16;;;;;;;9.63;3.83;;;20.70;99.90;;;;;;4963419;28;88592;-33
2022/08/03 05:46:41;;;;;;;7.85;3.95;;;20.80;99.90;;;;;;4963612;28;87924;-32
2022/08/03 05:49:07;;;;;;;6.40;4.30;;;20.90;99.90;;;;;;4971061;28;90374;-30
2022/08/03 05:51:32;;;;;;;4.35;3.30;;;20.90;99.90;;;;;;4973855;28;90545;-31
2022/08/03 05:53:58;;;;;;;9.35;3.97;;;21.00;99.90;;;;;;4976924;28;88832;-30
2022/08/03 05:56:24;;;;;;;5.50;4.03;;;21.10;99.90;;;;;;4990895;28;87751;-34
2022/08/03 05:58:51;;;;;;;9.48;4.18;;;21.30;99.90;;;;;;4974092;28;90164;-31
2022/08/03 06:01:17;;;;;;;5.13;4.40;;;21.30;99.90;;;;;;4964150;28;89411;-31
2022/08/03 06:03:44;;;;;;;5.13;3.58;;;21.40;99.90;;;;;;4963330;28;89195;-34
2022/08/03 06:06:10;;;;;;;5.13;3.80;;;21.40;99.90;;;;;;4973159;28;88340;-34
2022/08/03 06:08:36;;;;;;;5.93;3.75;;;21.40;99.90;;;;;;4967259;28;90093;-30
2022/08/03 06:11:02;;;;;;;11.05;4.25;;;21.40;99.90;;;;;;4962146;28;90045;-31
2022/08/03 06:13:28;;;;;;;8.02;4.80;;;21.50;99.90;;;;;;4963187;28;89558;-34
2022/08/03 06:15:54;;;;;;;11.52;5.05;;;21.50;99.90;;;;;;4963989;28;88442;-33
2022/08/03 06:18:19;;;;;;;7.93;4.47;;;21.60;99.90;;;;;;4962388;28;90569;-32
2022/08/03 06:20:45;;;;;;;9.38;3.95;;;21.70;99.90;;;;;;4963490;28;89564;-31
2022/08/03 06:23:11;;;;;;;9.60;4.72;;;21.70;99.90;;;;;;4962833;28;88339;-33
2022/08/03 06:25:36;;;;;;;12.00;4.28;;;21.80;99.90;;;;;;4962611;28;89910;-30
2022/08/03 06:28:03;;;;;;;11.43;4.30;;;21.90;99.90;;;;;;4963297;28;90323;-31
2022/08/03 06:30:29;;;;;;;12.73;4.57;;;22.00;99.90;;;;;;4958212;28;88643;-32
2022/08/03 06:32:55;;;;;;;10.88;3.95;;;22.10;99.90;;;;;;4952548;28;90062;-34
2022/08/03 06:35:21;;;;;;;7.03;4.20;;;22.20;99.90;;;;;;4959516;28;88890;-33
2022/08/03 06:37:48;;;;;;;5.80;3.03;;;22.30;99.90;;;;;;4962162;28;90060;-32
2022/08/03 06:40:19;;;;;;;11.18;4.20;;;22.40;99.90;;;;;;4962457;28;89704;-34
2022/08/03 06:42:45;;;;;;;8.45;3.78;;;22.50;99.90;;;;;;4962778;28;88344;-31
2022/08/03 06:45:12;;;;;;;6.57;3.83;;;22.60;99.90;;;;;;4962875;28;90574;-33
2022/08/03 06:47:38;;;;;;;7.13;3.65;;;22.70;99.90;;;;;;4960994;28;90362;-34
2022/08/03 06:50:05;;;;;;;8.07;3.83;;;22.80;99.90;;;;;;4962634;28;89210;-35
2022/08/03 06:52:31;;;;;;;14.30;4.43;;;22.90;99.90;;;;;;4960251;28;88793;-35
2022/08/03 06:54:57;;;;;;;14.23;4.00;;;23.00;99.90;;;;;;4950516;28;88207;-34
2022/08/03 06:57:23;;;;;;;10.18;4.97;;;23.00;99.90;;;;;;4962782;28;90411;-34
2022/08/03 06:59:48;;;;;;;11.93;4.55;;;23.00;99.90;;;;;;4962295;28;90048;-33
2022/08/03 07:02:14;;;;;;;13.75;4.57;;;23.00;99.90;;;;;;4972789;28;87532;-32
2022/08/03 07:04:40;;;;;;;7.57;3.38;;;23.10;99.90;;;;;;4975830;28;87679;-32
2022/08/03 07:07:05;;;;;;;6.05;3.42;;;23.30;99.90;;;;;;4976233;28;90433;-32
2022/08/03 07:09:31;;;;;;;11.82;3.67;;;23.40;99.90;;;;;;4975400;28;89965;-32
2022/08/03 07:11:57;;;;;;;10.15;3.45;;;23.30;99.90;;;;;;4971206;28;87567;-31
2022/08/03 07:14:23;;;;;;;8.38;3.42;;;23.30;99.90;;;;;;4971645;28;88462;-34
2022/08/03 07:16:49;;;;;;;6.80;3.97;;;23.30;99.90;;;;;;4961232;28;90283;-31
2022/08/03 07:19:14;;;;;;;11.05;3.72;;;23.40;99.90;;;;;;4960748;28;89512;-31
2022/08/03 07:21:40;;;;;;;10.43;3.83;;;23.60;99.90;;;;;;4960589;28;88230;-33
2022/08/03 07:24:06;;;;;;;9.82;4.45;;;23.70;99.90;;;;;;4961102;28;90355;-33
2022/08/03 07:26:31;;;;;;;6.55;3.45;;;23.90;99.90;;;;;;4961837;28;89970;-33
2022/08/03 07:28:57;;;;;;;8.65;3.97;;;24.00;99.90;;;;;;4961909;28;89463;-33
2022/08/03 07:31:22;;;;;;;14.35;4.18;;;24.10;99.90;;;;;;4962134;28;89775;-33
2022/08/03 07:33:48;;;;;;;8.05;3.38;;;24.00;99.90;;;;;;4962344;28;89845;-32
2022/08/03 07:36:13;;;;;;;11.07;4.25;;;24.00;99.90;;;;;;4960432;28;90876;-33
2022/08/03 07:38:39;;;;;;;12.02;4.57;;;24.10;99.90;;;;;;4961698;28;90015;-33
2022/08/03 07:41:04;;;;;;;9.30;3.53;;;24.30;99.90;;;;;;4961290;28;88307;-34
2022/08/03 07:43:30;;;;;;;8.02;3.88;;;24.30;99.90;;;;;;4962034;28;87503;-33
2022/08/03 07:45:55;;;;;;;7.95;2.60;;;24.40;99.90;;;;;;4961816;28;91648;-32
2022/08/03 07:48:21;;;;;;;6.38;3.85;;;24.50;99.90;;;;;;4961249;28;90467;-31
2022/08/03 07:50:47;;;;;;;11.35;3.50;;;24.50;99.90;;;;;;4961876;28;88602;-33
2022/08/03 07:53:13;;;;;;;12.18;3.72;;;24.50;99.90;;;;;;4961515;28;87727;-31
2022/08/03 07:55:38;;;;;;;11.52;3.50;;;24.50;99.90;;;;;;4961873;28;90321;-33
2022/08/03 07:58:21;;;;;;;9.02;3.33;;;24.50;99.90;;;;;;4961147;28;89749;-32
2022/08/03 08:00:47;;;;;;;7.63;3.60;;;24.70;99.90;;;;;;4962386;28;88201;-33
2022/08/03 08:03:12;;;;;;;17.45;3.42;;;24.90;99.90;;;;;;4974650;28;87650;-31
2022/08/03 08:05:38;;;;;;;7.53;3.90;;;25.00;99.90;;;;;;4975163;28;90596;-31
2022/08/03 08:08:05;;;;;;;7.13;3.75;;;24.90;99.90;;;;;;4976094;28;90061;-31
2022/08/03 08:10:31;;;;;;;13.43;3.42;;;24.80;99.90;;;;;;4974489;28;88013;-32
2022/08/03 08:12:58;;;;;;;6.63;3.58;;;24.90;99.90;;;;;;4975609;28;87643;-31
2022/08/03 08:15:23;;;;;;;17.02;5.13;;;25.10;99.90;;;;;;4974557;28;90666;-32
2022/08/03 08:17:54;;;;;;;13.52;4.43;;;25.20;99.90;;;;;;4961685;28;90101;-35
2022/08/03 08:20:23;;;;;;;8.48;3.95;;;25.30;99.90;;;;;;4975168;28;88923;-33
2022/08/03 08:22:49;;;;;;;13.85;4.00;;;25.40;99.90;;;;;;4975208;28;87687;-31
2022/08/03 08:25:15;;;;;;;16.20;3.85;;;25.50;99.90;;;;;;4974595;28;90181;-33
2022/08/03 08:27:42;;;;;;;10.65;3.90;;;25.70;99.90;;;;;;4973960;28;89762;-32
2022/08/03 08:30:08;;;;;;;14.73;4.13;;;25.80;99.90;;;;;;4975043;28;87566;-35
2022/08/03 08:32:36;;;;;;;9.43;3.65;;;26.00;99.90;;;;;;4975333;28;87840;-31
2022/08/03 08:35:02;;;;;;;8.63;3.90;;;26.00;99.90;;;;;;4961195;28;90223;-32
2022/08/03 08:37:28;;;;;;;18.15;4.60;;;26.20;99.90;;;;;;4960692;28;90259;-32
2022/08/03 08:39:55;;;;;;;11.90;4.25;;;26.30;99.90;;;;;;4961073;28;88539;-34
2022/08/03 08:42:21;;;;;;;10.60;4.03;;;26.30;99.90;;;;;;4961220;28;89885;-32
2022/08/03 08:44:47;;;;;;;14.10;4.60;;;26.30;99.90;;;;;;4960241;28;90304;-36
2022/08/03 08:47:13;;;;;;;12.93;4.43;;;26.30;99.90;;;;;;4960880;28;89820;-31
2022/08/03 08:49:40;;;;;;;7.60;4.05;;;26.40;99.90;;;;;;4960229;28;87601;-33
2022/08/03 08:52:10;;;;;;;8.68;3.55;;;26.40;99.90;;;;;;4961295;28;90300;-33
2022/08/03 08:54:39;;;;;;;13.13;5.00;;;26.50;99.90;;;;;;4961153;28;89271;-32
2022/08/03 08:57:06;;;;;;;7.15;3.70;;;26.60;99.90;;;;;;4960903;28;90311;-32
2022/08/03 08:59:35;;;;;;;14.88;4.20;;;26.60;99.90;;;;;;4960837;28;88689;-33
2022/08/03 09:02:01;;;;;;;9.88;3.75;;;26.70;99.90;;;;;;4961378;28;88787;-32
2022/08/03 09:04:28;;;;;;;11.23;3.95;;;26.70;99.90;;;;;;4959824;28;89882;-34
2022/08/03 09:06:54;;;;;;;11.52;4.18;;;26.80;99.90;;;;;;4960938;28;89775;-35
2022/08/03 09:09:19;;;;;;;6.65;4.03;;;26.90;99.90;;;;;;4960393;28;88672;-32
2022/08/03 09:11:47;;;;;;;14.93;3.88;;;26.90;99.90;;;;;;4960244;28;88150;-34
2022/08/03 09:14:13;;;;;;;10.68;4.57;;;27.00;99.90;;;;;;4960788;28;89941;-34
2022/08/03 09:16:56;;;;;;;8.02;3.50;;;27.00;99.90;;;;;;4963541;28;89849;-34
2022/08/03 09:19:22;;;;;;;9.65;4.43;;;27.20;99.90;;;;;;4963779;28;89294;-34
2022/08/03 09:22:09;;;;;;;13.98;4.72;;;27.20;99.90;;;;;;4964551;28;88674;-34
2022/08/03 09:24:35;;;;;;;15.20;3.63;;;27.40;99.90;;;;;;4963835;28;90059;-33
2022/08/03 09:27:01;;;;;;;7.10;3.95;;;27.50;99.90;;;;;;4963958;28;89661;-33
2022/08/03 09:29:31;;;;;;;6.30;3.58;;;27.50;99.90;;;;;;4963695;28;89492;-32
2022/08/03 09:32:02;;;;;;;19.80;4.20;;;27.50;99.90;;;;;;4963221;28;89729;-32
2022/08/03 09:34:28;;;;;;;11.77;3.28;;;27.60;99.90;;;;;;4963354;28;90511;-34
2022/08/03 09:36:55;;;;;;;23.75;4.78;;;27.70;99.90;;;;;;4963807;28;89930;-33
2022/08/03 09:39:24;;;;;;;11.27;4.32;;;27.80;99.90;;;;;;4963432;28;91290;-31
2022/08/03 09:42:05;;;;;;;9.65;3.03;;;27.80;99.90;;;;;;4963455;28;88885;-33
2022/08/03 09:44:42;;;;;;;6.32;4.57;;;27.80;99.90;;;;;;4964284;28;88861;-33
2022/08/03 09:47:13;;;;;;;12.77;4.15;;;27.90;99.90;;;;;;4962761;28;90121;-35
2022/08/03 09:49:42;;;;;;;13.00;4.20;;;27.90;99.90;;;;;;4963218;28;88963;-32
2022/08/03 09:52:14;;;;;;;9.35;3.90;;;27.90;99.90;;;;;;4963047;28;87789;-33
2022/08/03 09:54:41;;;;;;;8.85;3.95;;;28.10;99.90;;;;;;4963673;28;90192;-32
2022/08/03 09:57:06;;;;;;;9.67;3.93;;;28.10;99.90;;;;;;4963466;28;89922;-33
2022/08/03 09:59:32;;;;;;;12.23;3.40;;;28.20;99.90;;;;;;4961984;28;88341;-34
2022/08/03 10:01:58;;;;;;;10.18;4.10;;;28.20;99.90;;;;;;4963346;28;87848;-35
2022/08/03 10:04:25;;;;;;;11.50;3.58;;;28.20;99.90;;;;;;4962604;28;90638;-32
2022/08/03 10:07:08;;;;;;;8.13;4.13;;;28.30;99.90;;;;;;4963380;28;89750;-31
2022/08/03 10:09:35;;;;;;;6.60;3.58;;;28.40;99.90;;;;;;4963416;28;88754;-32
2022/08/03 10:12:11;;;;;;;11.85;4.25;;;28.40;99.90;;;;;;4964007;28;89352;-31
2022/08/03 10:14:38;;;;;;;13.37;4.27;;;28.50;99.90;;;;;;4963116;28;91445;-33
2022/08/03 10:17:04;;;;;;;8.38;3.53;;;28.50;99.90;;;;;;4962470;28;90808;-33
2022/08/03 10:19:30;;;;;;;9.18;3.53;;;28.60;99.90;;;;;;4963142;28;91392;-36
2022/08/03 10:22:01;;;;;;;12.48;4.03;;;28.60;99.90;;;;;;4963381;28;88080;-33
2022/08/03 10:24:29;;;;;;;15.57;4.45;;;28.70;99.90;;;;;;4963057;28;90159;-32
2022/08/03 10:27:07;;;;;;;9.35;3.50;;;28.80;99.90;;;;;;4961805;28;89745;-35
2022/08/03 10:29:44;;;;;;;10.52;3.10;;;28.80;99.90;;;;;;4962944;28;88957;-33
2022/08/03 10:32:20;;;;;;;12.80;5.50;;;28.80;99.90;;;;;;4960881;28;88344;-33
2022/08/03 10:34:51;;;;;;;13.73;4.53;;;28.80;99.90;;;;;;4963159;28;90263;-34
2022/08/03 10:37:17;;;;;;;12.93;4.35;;;28.90;99.90;;;;;;4963344;28;88508;-34
2022/08/03 10:39:52;;;;;;;14.60;5.23;;;28.90;99.90;;;;;;4962793;28;88089;-34
2022/08/03 10:42:24;;;;;;;8.55;3.80;;;28.80;99.90;;;;;;4962589;28;87981;-32
2022/08/03 10:44:59;;;;;;;8.65;3.47;;;28.80;99.90;;;;;;4962768;28;90144;-33
2022/08/03 10:47:25;;;;;;;7.93;3.33;;;28.80;99.90;;;;;;4960983;28;89824;-34
2022/08/03 10:49:51;;;;;;;7.03;3.38;;;28.90;99.90;;;;;;4963139;28;88665;-33
2022/08/03 10:52:17;;;;;;;15.30;4.30;;;28.80;99.90;;;;;;4961638;28;89796;-33
2022/08/03 10:57:46;;;;;;;5.97;2.90;;;28.80;99.90;;;;;;4935382;28;90097;-35
2022/08/03 11:00:23;;;;;;;10.65;3.30;;;28.80;99.90;;;;;;4961162;28;89386;-34
2022/08/03 11:03:02;;;;;;;16.27;3.92;;;28.80;99.90;;;;;;4976651;28;88160;-35
2022/08/03 11:05:29;;;;;;;13.63;4.25;;;28.90;99.90;;;;;;4975965;28;91077;-34
2022/08/03 11:08:14;;;;;;;;;;;28.90;99.90;;;;;;4976771;28;89571;-34
2022/08/03 11:10:39;;;;;;;10.75;3.65;;;28.90;99.90;;;;;;4977691;28;87487;-34
2022/08/03 11:13:06;;;;;;;11.50;3.92;;;28.90;99.90;;;;;;4975107;28;89209;-35
2022/08/03 11:15:33;;;;;;;12.70;4.45;;;29.00;99.90;;;;;;4960324;28;91705;-33
2022/08/03 11:18:09;;;;;;;7.90;3.63;;;29.30;99.90;;;;;;4961136;28;89552;-35
2022/08/03 11:20:55;;;;;;;15.90;4.53;;;29.40;99.90;;;;;;4962436;28;89076;-34
2022/08/03 11:23:41;;;;;;;17.90;4.68;;;29.40;99.90;;;;;;4962542;28;89562;-33
2022/08/03 11:26:18;;;;;;;12.38;3.88;;;29.40;99.90;;;;;;4958291;28;90733;-35
2022/08/03 11:28:47;;;;;;;11.73;3.83;;;29.40;99.90;;;;;;4962121;28;89095;-36
2022/08/03 11:31:22;;;;;;;11.57;4.22;;;29.40;96.70;;;;;;4961683;28;88869;-33
2022/08/03 11:34:11;;;;;;;12.75;5.05;;;29.30;99.00;;;;;;4961815;28;87960;-33
2022/08/03 11:37:14;;;;;;;8.25;3.45;;;29.30;99.90;;;;;;4962629;28;88889;-34
2022/08/03 11:39:45;;;;;;;9.60;3.58;;;29.20;93.80;;;;;;4960877;28;89337;-34
2022/08/03 11:42:23;;;;;;;11.05;3.35;;;29.10;96.90;;;;;;4960998;28;89066;-35
2022/08/03 11:44:50;;;;;;;8.75;2.65;;;29.10;99.90;;;;;;4961371;28;88795;-35
2022/08/03 11:47:16;;;;;;;16.20;4.18;;;29.20;99.60;;;;;;4961964;28;90556;-34
2022/08/03 11:49:54;;;;;;;11.02;3.22;;;29.30;96.80;;;;;;4961481;28;89626;-33
2022/08/03 11:52:21;;;;;;;10.15;4.10;;;29.40;96.50;;;;;;4961692;28;88976;-33
2022/08/03 11:54:50;;;;;;;22.67;3.75;;;29.40;93.50;;;;;;4961557;28;90155;-34
2022/08/03 11:57:33;;;;;;;7.80;2.75;;;29.40;95.70;;;;;;4961104;28;90286;-34
2022/08/03 11:59:59;;;;;;;14.25;3.67;;;29.40;97.50;;;;;;4962179;28;89738;-33
2022/08/03 12:02:24;;;;;;;11.05;3.72;;;29.50;96.90;;;;;;4961622;28;87680;-33
2022/08/03 12:04:57;;;;;;;7.35;3.33;;;29.60;94.40;;;;;;4961733;28;89890;-35
2022/08/03 12:07:23;;;;;;;8.82;3.40;;;29.60;93.50;;;;;;4960630;28;90203;-36
2022/08/03 12:10:10;;;;;;;8.68;3.08;;;29.70;90.70;;;;;;4961333;28;89583;-32
2022/08/03 12:12:36;;;;;;;7.23;3.13;;;29.80;88.00;;;;;;4961728;28;88842;-33
2022/08/03 12:15:03;;;;;;;6.03;2.92;;;29.70;87.90;;;;;;4961382;28;89479;-33
2022/08/03 12:17:36;;;;;;;8.83;3.47;;;29.70;87.40;;;;;;4994370;22;90360;-36
2022/08/03 12:20:04;;;;;;;8.45;3.05;;;29.70;88.90;;;;;;4960988;28;89710;-33
2022/08/03 12:22:39;;;;;;;;;;;29.80;85.90;;;;;;4961489;28;89782;-34
2022/08/03 12:25:07;;;;;;;8.40;3.17;;;29.80;83.50;;;;;;4963480;28;88708;-32
2022/08/03 12:27:33;;;;;;;9.35;3.10;;;29.90;83.30;;;;;;4961316;28;91684;-35
2022/08/03 12:30:00;;;;;;;7.45;2.60;;;29.90;85.40;;;;;;4960049;28;89449;-34
2022/08/03 12:32:29;;;;;;;12.80;3.35;;;30.00;81.20;;;;;;4961803;28;88703;-35
2022/08/03 12:35:03;;;;;;;11.82;3.08;;;30.00;81.90;;;;;;4961181;28;87642;-36
2022/08/03 12:37:29;;;;;;;10.25;2.72;;;30.00;82.10;;;;;;4961126;28;90605;-34
2022/08/03 12:40:00;;;;;;;11.13;3.90;;;29.90;80.50;;;;;;4961238;28;89745;-35
2022/08/03 12:42:44;;;;;;;4.05;2.42;;;30.00;81.30;;;;;;4960809;28;88875;-35
2022/08/03 12:45:26;;;;;;;8.80;2.67;;;30.00;76.50;;;;;;4960523;28;88834;-33
2022/08/03 12:47:58;;;;;;;22.80;4.22;;;30.10;74.80;;;;;;4961562;28;90658;-36
2022/08/03 12:50:34;;;;;;;12.52;3.55;;;30.10;74.40;;;;;;4960287;28;89572;-36
2022/08/03 12:53:03;;;;;;;7.73;3.43;;;30.20;73.20;;;;;;4961221;28;87691;-35
2022/08/03 12:55:32;;;;;;;12.52;2.95;;;30.10;71.80;;;;;;4960474;28;89370;-34
2022/08/03 12:58:03;;;;;;;13.38;3.83;;;30.10;71.90;;;;;;4961424;28;90382;-34
2022/08/03 13:00:29;;;;;;;13.65;3.45;;;30.10;71.90;;;;;;4960566;28;88045;-36
2022/08/03 13:03:01;;;;;;;9.30;2.35;;;30.10;73.70;;;;;;4960742;28;88832;-35